Time;durP1;ratioP1;P1;durP2;ratioP2;P2;SDS_P1;SDS_P2;PMS_P1;PMS_P2;Temp;Humidity;BMP_temperature;BMP_pressure;BME280_temperature;BME280_humidity;BME280_pressure;Samples;Min_cycle;Max_cycle;Signal;HPM_P1;HPM_P2
2022/03/07 00:00:32;;;;;;;;;63.00;48.00;;;;;3.40;51.74;102037.69;5074883;28;45355;-75
2022/03/07 00:02:57;;;;;;;;;64.67;50.33;;;;;3.44;53.20;102042.34;5073079;28;45474;-75
2022/03/07 00:05:22;;;;;;;;;63.67;52.00;;;;;3.13;52.93;101990.44;5076351;28;46536;-75
2022/03/07 00:07:48;;;;;;;;;67.33;54.00;;;;;3.27;52.70;102025.44;5073204;28;45415;-75
2022/03/07 00:10:13;;;;;;;;;63.67;47.67;;;;;2.71;52.17;101915.09;5076626;28;45371;-74
2022/03/07 00:12:38;;;;;;;;;59.00;47.33;;;;;3.38;52.13;102034.97;5079503;27;44996;-75
2022/03/07 00:15:04;;;;;;;;;64.33;51.00;;;;;3.24;53.61;102017.38;5078259;27;45234;-74
2022/03/07 00:17:30;;;;;;;;;65.67;52.00;;;;;3.19;53.15;102009.19;5073360;28;45266;-74
2022/03/07 00:19:55;;;;;;;;;66.00;52.33;;;;;3.29;53.73;102034.28;5078678;27;45247;-75
2022/03/07 00:22:21;;;;;;;;;62.33;46.33;;;;;3.27;53.14;102031.56;5074154;27;45363;-75
2022/03/07 00:24:46;;;;;;;;;62.00;46.00;;;;;3.02;52.55;101986.13;5072066;28;45497;-75
2022/03/07 00:27:11;;;;;;;;;63.00;51.00;;;;;3.21;52.75;102030.22;5076616;28;45590;-74
2022/03/07 00:29:37;;;;;;;;;63.00;46.67;;;;;3.25;51.94;102032.22;5073290;27;45493;-74
2022/03/07 00:32:02;;;;;;;;;44.33;37.33;;;;;3.18;52.77;102030.00;5075111;28;45606;-74
2022/03/07 00:34:28;;;;;;;;;62.33;47.00;;;;;3.18;52.35;102043.06;5072954;28;47064;-75
2022/03/07 00:36:53;;;;;;;;;65.00;47.67;;;;;3.21;52.68;102046.78;5073944;28;45422;-74
2022/03/07 00:39:19;;;;;;;;;58.00;46.33;;;;;3.19;52.34;102043.13;5075917;27;46058;-74
2022/03/07 00:41:44;;;;;;;;;68.00;50.33;;;;;3.18;53.31;102045.66;5060786;28;45548;-73
2022/03/07 00:44:09;;;;;;;;;59.33;49.33;;;;;3.14;52.61;102037.59;5073591;28;47247;-75
2022/03/07 00:46:35;;;;;;;;;66.00;47.00;;;;;3.00;52.89;102022.59;5066589;27;45292;-76
2022/03/07 00:49:00;;;;;;;;;65.00;47.33;;;;;3.06;53.19;102023.06;5072767;28;45489;-75
2022/03/07 00:51:25;;;;;;;;;58.00;45.33;;;;;3.12;52.93;102041.78;5077325;28;47583;-75
2022/03/07 00:53:51;;;;;;;;;54.33;44.00;;;;;2.82;52.56;101988.19;5076799;28;47211;-75
2022/03/07 00:56:16;;;;;;;;;66.00;50.00;;;;;2.93;53.08;102012.50;5079755;27;45464;-75
2022/03/07 00:58:42;;;;;;;;;62.67;49.00;;;;;2.96;53.00;102035.31;5080199;28;45846;-75
2022/03/07 01:01:07;;;;;;;;;64.67;52.00;;;;;2.86;52.99;102024.19;5073594;27;45283;-74
2022/03/07 01:03:32;;;;;;;;;55.00;43.67;;;;;2.85;53.70;102014.53;5079926;28;45339;-75
2022/03/07 01:05:58;;;;;;;;;63.33;50.67;;;;;2.83;53.33;102017.81;5074780;27;45285;-74
2022/03/07 01:08:23;;;;;;;;;66.67;51.67;;;;;2.76;52.68;102003.41;5078425;28;45361;-75
2022/03/07 01:10:49;;;;;;;;;62.33;48.00;;;;;2.92;53.63;102029.88;5079732;28;45928;-74
2022/03/07 01:13:15;;;;;;;;;65.33;47.00;;;;;2.53;53.04;101966.84;5080910;27;45426;-75
2022/03/07 01:15:40;;;;;;;;;61.33;49.00;;;;;2.89;53.43;102031.34;5077360;27;45200;-75
2022/03/07 01:18:05;;;;;;;;;61.00;50.00;;;;;2.88;53.63;102038.25;5078987;28;45240;-75
2022/03/07 01:20:32;;;;;;;;;60.33;47.00;;;;;2.63;53.71;101996.38;5077313;28;45403;-75
2022/03/07 01:22:57;;;;;;;;;59.00;45.67;;;;;2.74;54.40;102017.13;5079634;28;47449;-75
2022/03/07 01:25:23;;;;;;;;;60.33;48.00;;;;;2.74;53.37;102017.13;5078653;28;45235;-75
2022/03/07 01:27:48;;;;;;;;;61.33;46.33;;;;;2.66;53.70;102007.03;5079455;28;45260;-75
2022/03/07 01:30:14;;;;;;;;;62.33;44.67;;;;;2.55;53.78;101987.03;5072477;28;45371;-75
2022/03/07 01:32:39;;;;;;;;;64.00;47.00;;;;;2.56;53.74;101999.28;5081646;27;45509;-75
2022/03/07 01:35:07;;;;;;;;;66.67;47.33;;;;;2.60;52.91;102011.75;5072362;27;45301;-75
2022/03/07 01:37:32;;;;;;;;;62.67;50.33;;;;;2.73;53.63;102036.19;5077721;28;45318;-75
2022/03/07 01:39:57;;;;;;;;;67.67;48.00;;;;;2.58;53.54;102002.94;5073119;28;45341;-75
2022/03/07 01:42:23;;;;;;;;;62.67;48.00;;;;;2.68;53.83;102022.78;5080274;28;46368;-75
2022/03/07 01:44:48;;;;;;;;;54.33;45.67;;;;;2.67;53.29;102021.00;5074519;27;47122;-75
2022/03/07 01:47:14;;;;;;;;;63.67;48.00;;;;;2.65;54.05;102022.56;5079164;28;45836;-75
2022/03/07 01:49:39;;;;;;;;;59.67;49.00;;;;;2.26;54.92;101955.22;5076608;27;45390;-75
2022/03/07 01:52:07;;;;;;;;;58.00;44.67;;;;;2.51;53.89;102005.84;5068768;27;45415;-75
2022/03/07 01:54:33;;;;;;;;;58.00;45.00;;;;;2.62;54.42;102025.84;5078583;28;45652;-75
2022/03/07 01:56:58;;;;;;;;;61.67;47.33;;;;;2.54;53.96;102000.88;5080000;28;45425;-75
2022/03/07 01:59:27;;;;;;;;;53.00;47.33;;;;;2.60;54.53;102006.53;5079323;28;46000;-74
2022/03/07 02:01:53;;;;;;;;;54.00;47.67;;;;;2.46;54.16;101983.72;5079953;28;48070;-74
2022/03/07 02:04:19;;;;;;;;;54.33;44.33;;;;;2.58;54.47;102012.47;5080635;28;45343;-74
2022/03/07 02:06:46;;;;;;;;;63.33;47.33;;;;;2.50;53.98;101995.31;5071448;27;45206;-74
2022/03/07 02:09:12;;;;;;;;;61.33;48.00;;;;;2.22;54.08;101951.47;5072071;28;46560;-74
2022/03/07 02:11:38;;;;;;;;;54.33;43.33;;;;;2.23;54.28;101959.38;5072580;27;45445;-74
2022/03/07 02:14:19;;;;;;;;;63.00;49.67;;;;;2.36;54.38;101986.44;5080305;28;45390;-74
2022/03/07 02:16:45;;;;;;;;;55.67;43.00;;;;;2.47;53.43;101996.00;5081349;27;45309;-74
2022/03/07 02:19:11;;;;;;;;;67.33;46.00;;;;;2.40;54.04;101994.59;5078824;28;46075;-74
2022/03/07 02:21:44;;;;;;;;;55.33;42.33;;;;;2.36;54.13;101987.34;5075596;27;45422;-74
2022/03/07 02:24:10;;;;;;;;;58.67;45.33;;;;;2.20;54.50;101959.16;5079276;28;47155;-74
2022/03/07 02:26:35;;;;;;;;;50.00;39.33;;;;;2.37;54.57;101993.47;5073256;28;45424;-73
2022/03/07 02:29:01;;;;;;;;;63.33;46.67;;;;;2.24;53.96;101960.28;5074485;28;46112;-74
2022/03/07 02:31:26;;;;;;;;;59.00;44.67;;;;;2.38;53.81;101987.44;5071797;27;45308;-73
2022/03/07 02:33:53;;;;;;;;;61.00;41.00;;;;;2.27;54.46;101970.06;5079952;27;45287;-73
2022/03/07 02:36:18;;;;;;;;;62.00;49.33;;;;;2.36;54.21;101982.13;5071944;27;45292;-74
2022/03/07 02:38:44;;;;;;;;;55.33;41.00;;;;;2.21;53.63;101960.06;5080020;27;45433;-74
2022/03/07 02:41:09;;;;;;;;;52.00;42.67;;;;;2.33;54.76;101984.50;5071956;27;45682;-74
2022/03/07 02:43:34;;;;;;;;;61.00;44.67;;;;;2.30;54.22;101978.13;5068120;27;45445;-74
2022/03/07 02:46:01;;;;;;;;;58.00;46.00;;;;;1.66;54.15;101868.09;5069498;28;45276;-74
2022/03/07 02:48:27;;;;;;;;;48.00;43.67;;;;;2.27;54.50;101976.22;5072710;28;47281;-73
2022/03/07 02:50:53;;;;;;;;;48.00;42.33;;;;;2.26;54.80;101965.66;5071290;28;48380;-75
2022/03/07 02:53:19;;;;;;;;;66.33;48.67;;;;;2.23;55.00;101971.53;5079441;28;45679;-74
2022/03/07 02:55:44;;;;;;;;;56.67;44.67;;;;;2.14;54.92;101953.47;5076706;28;45314;-74
2022/03/07 02:58:10;;;;;;;;;64.33;46.00;;;;;2.19;54.54;101966.88;5075937;28;47350;-74
2022/03/07 03:00:36;;;;;;;;;59.67;45.67;;;;;2.12;54.42;101952.44;5075607;28;46098;-74
2022/03/07 03:03:01;;;;;;;;;60.00;46.00;;;;;2.13;55.17;101963.78;5072102;28;45307;-73
2022/03/07 03:05:27;;;;;;;;;67.67;53.33;;;;;2.04;54.46;101958.78;5078835;28;45676;-73
2022/03/07 03:07:52;;;;;;;;;56.33;48.00;;;;;1.81;55.10;101911.78;5080469;27;45344;-74
2022/03/07 03:10:19;;;;;;;;;60.33;47.00;;;;;2.00;55.46;101949.81;5078023;27;45308;-75
2022/03/07 03:12:46;;;;;;;;;52.67;42.00;;;;;2.05;55.36;101965.81;5072426;28;45704;-74
2022/03/07 03:15:12;;;;;;;;;44.00;36.67;;;;;1.93;55.37;101951.81;5078863;28;45349;-75
2022/03/07 03:17:39;;;;;;;;;55.67;44.67;;;;;2.00;55.22;101964.56;5073723;28;45257;-74
2022/03/07 03:20:05;;;;;;;;;56.67;46.33;;;;;1.76;54.87;101919.22;5079292;28;46062;-75
2022/03/07 03:22:31;;;;;;;;;57.67;44.00;;;;;1.70;55.44;101916.16;5073656;27;45296;-75
2022/03/07 03:24:56;;;;;;;;;63.00;45.67;;;;;1.93;54.94;101947.53;5065870;28;45230;-74
2022/03/07 03:27:22;;;;;;;;;54.33;42.67;;;;;1.91;54.97;101951.72;5077164;28;45973;-74
2022/03/07 03:29:47;;;;;;;;;58.33;45.33;;;;;1.90;55.29;101948.97;5073048;27;46274;-74
2022/03/07 03:32:12;;;;;;;;;45.00;41.00;;;;;1.75;55.35;101927.84;5075400;28;45267;-75
2022/03/07 03:34:38;;;;;;;;;52.00;43.67;;;;;1.88;55.47;101959.31;5074711;28;45235;-74
2022/03/07 03:37:03;;;;;;;;;59.33;42.33;;;;;1.63;55.10;101919.09;5075724;28;45213;-75
2022/03/07 03:39:28;;;;;;;;;45.33;38.33;;;;;1.84;55.46;101951.13;5075695;27;46188;-74
2022/03/07 03:41:54;;;;;;;;;48.67;44.00;;;;;1.48;55.92;101893.63;5074413;28;45278;-74
2022/03/07 03:44:19;;;;;;;;;62.00;48.00;;;;;1.74;55.49;101950.41;5074595;27;45524;-74
2022/03/07 03:46:44;;;;;;;;;59.00;41.00;;;;;1.67;55.71;101941.97;5066545;27;45353;-74
2022/03/07 03:49:10;;;;;;;;;42.33;38.67;;;;;1.46;55.41;101902.13;5077370;28;48336;-74
2022/03/07 03:51:35;;;;;;;;;50.67;43.67;;;;;1.76;56.60;101956.66;5077645;28;45323;-74
2022/03/07 03:54:01;;;;;;;;;52.00;42.33;;;;;1.73;56.10;101958.09;5076915;27;45459;-74
2022/03/07 03:56:26;;;;;;;;;61.00;45.33;;;;;1.69;56.04;101961.25;5077488;27;45423;-74
2022/03/07 03:58:52;;;;;;;;;48.00;42.67;;;;;1.51;55.29;101932.03;5077845;27;45359;-74
2022/03/07 04:01:17;;;;;;;;;62.67;43.67;;;;;1.66;55.50;101964.53;5069942;28;45340;-74
2022/03/07 04:03:42;;;;;;;;;70.33;52.33;;;;;1.49;56.68;101936.25;5077656;28;45300;-74
2022/03/07 04:06:08;;;;;;;;;282.75;221.00;;;;;1.64;56.44;101973.03;5071170;27;45504;-74
2022/03/07 04:08:52;;;;;;;;;68.33;51.33;;;;;1.59;56.46;101963.91;5065263;28;45421;-74
2022/03/07 04:11:17;;;;;;;;;70.67;53.00;;;;;1.62;55.39;101964.16;5071664;27;45374;-74
2022/03/07 04:13:43;;;;;;;;;65.00;47.33;;;;;1.59;56.17;101966.53;5078506;28;45349;-74
2022/03/07 04:16:08;;;;;;;;;149.50;122.75;;;;;1.46;56.34;101938.63;5073306;27;45253;-74
2022/03/07 04:18:34;;;;;;;;;159.25;127.75;;;;;1.56;55.88;101964.59;5078389;28;45910;-74
2022/03/07 04:20:59;;;;;;;;;52.67;44.33;;;;;1.54;56.39;101963.53;5075030;28;45459;-74
2022/03/07 04:23:25;;;;;;;;;81.33;61.67;;;;;1.41;56.21;101950.34;5065688;28;45201;-74
2022/03/07 04:25:50;;;;;;;;;67.67;52.67;;;;;1.50;55.64;101958.91;5070182;27;45193;-75
2022/03/07 04:28:16;;;;;;;;;89.75;69.50;;;;;1.48;55.82;101966.56;5078580;27;45163;-75
2022/03/07 04:30:42;;;;;;;;;63.67;52.33;;;;;1.48;56.86;101963.06;5072564;28;45282;-74
2022/03/07 04:33:08;;;;;;;;;68.00;49.67;;;;;1.47;56.02;101971.69;5082431;27;45399;-74
2022/03/07 04:35:34;;;;;;;;;56.00;32.33;;;;;1.35;56.43;101956.00;5073517;27;45226;-74
2022/03/07 04:38:01;;;;;;;;;261.50;205.00;;;;;1.22;56.67;101934.94;5082945;27;45250;-74
2022/03/07 04:40:27;;;;;;;;;95.00;72.67;;;;;0.91;56.08;101882.13;5078914;28;45531;-74
2022/03/07 04:42:52;;;;;;;;;66.67;47.33;;;;;1.41;56.43;101972.09;5082835;27;45275;-74
2022/03/07 04:45:18;;;;;;;;;76.67;58.33;;;;;0.90;57.13;101896.84;5076030;27;45355;-75
2022/03/07 04:47:44;;;;;;;;;57.33;47.67;;;;;1.05;56.28;101911.06;5070909;28;46169;-74
2022/03/07 04:50:12;;;;;;;;;76.00;56.67;;;;;1.03;56.88;101919.53;5077088;28;45429;-74
2022/03/07 04:52:38;;;;;;;;;66.33;50.33;;;;;1.11;56.15;101932.38;5071113;28;45307;-74
2022/03/07 04:55:04;;;;;;;;;78.33;64.33;;;;;1.31;55.97;101973.03;5079449;28;45303;-74
2022/03/07 04:57:30;;;;;;;;;63.67;51.00;;;;;1.30;56.23;101975.53;5080583;27;46263;-74
2022/03/07 04:59:55;;;;;;;;;51.00;41.33;;;;;1.28;56.92;101977.09;5080191;27;45387;-74
2022/03/07 05:02:20;;;;;;;;;76.33;52.67;;;;;0.94;56.86;101924.91;5081172;28;45832;-74
2022/03/07 05:04:46;;;;;;;;;71.00;58.00;;;;;1.17;56.24;101955.41;5081466;27;45476;-74
2022/03/07 05:07:11;;;;;;;;;67.67;49.67;;;;;1.18;57.01;101967.66;5073402;27;46280;-74
2022/03/07 05:09:36;;;;;;;;;58.33;45.33;;;;;1.15;56.55;101962.22;5081414;28;45448;-74
2022/03/07 05:12:02;;;;;;;;;61.00;46.00;;;;;1.03;57.50;101954.28;5074644;27;45421;-73
2022/03/07 05:14:28;;;;;;;;;66.67;53.00;;;;;1.09;57.07;101966.91;5082927;27;47381;-73
2022/03/07 05:16:53;;;;;;;;;48.67;44.00;;;;;0.98;57.60;101950.44;5080306;27;48237;-73
2022/03/07 05:19:19;;;;;;;;;75.00;56.67;;;;;1.13;57.46;101973.28;5081306;27;45636;-73
2022/03/07 05:21:45;;;;;;;;;65.67;50.67;;;;;1.14;57.94;101985.50;5077528;27;45378;-73
2022/03/07 05:24:10;;;;;;;;;78.67;61.00;;;;;1.07;56.51;101964.19;5080505;28;45352;-73
2022/03/07 05:26:36;;;;;;;;;84.33;67.00;;;;;1.06;56.96;101964.94;5073764;28;45332;-73
2022/03/07 05:29:03;;;;;;;;;70.67;50.67;;;;;0.97;56.84;101952.91;5080999;27;45335;-73
2022/03/07 05:31:28;;;;;;;;;79.33;58.33;;;;;1.05;57.68;101983.06;5079568;27;45460;-73
2022/03/07 05:33:54;;;;;;;;;64.67;52.67;;;;;1.00;57.87;101964.47;5080836;28;45330;-75
2022/03/07 05:36:19;;;;;;;;;93.67;70.33;;;;;0.75;57.61;101929.41;5072952;28;46512;-75
2022/03/07 05:38:45;;;;;;;;;126.75;99.25;;;;;0.84;57.73;101954.50;5081032;27;45244;-74
2022/03/07 05:41:10;;;;;;;;;54.00;40.33;;;;;0.90;56.99;101969.72;5072654;27;45399;-74
2022/03/07 05:43:36;;;;;;;;;51.67;46.00;;;;;0.82;57.10;101957.78;5079317;28;45987;-74
2022/03/07 05:46:01;;;;;;;;;71.33;49.33;;;;;0.95;57.75;101985.69;5075872;28;47043;-75
2022/03/07 05:48:26;;;;;;;;;82.33;62.00;;;;;0.92;57.53;101990.66;5075357;27;45349;-74
2022/03/07 05:50:52;;;;;;;;;293.50;229.00;;;;;0.74;58.09;101953.63;5070280;28;45220;-74
2022/03/07 05:53:21;;;;;;;;;105.00;81.50;;;;;0.56;57.38;101920.13;5074575;28;45617;-76
2022/03/07 05:55:50;;;;;;;;;65.00;50.33;;;;;0.55;58.13;101926.06;5077803;28;46285;-75
2022/03/07 05:58:15;;;;;;;;;59.00;47.67;;;;;0.64;57.39;101942.47;5080661;28;45470;-75
2022/03/07 06:00:41;;;;;;;;;79.33;59.67;;;;;0.84;58.58;101982.19;5080215;28;45266;-76
2022/03/07 06:03:06;;;;;;;;;57.67;46.00;;;;;0.74;58.44;101975.34;5080942;27;45548;-77
2022/03/07 06:05:32;;;;;;;;;60.67;46.67;;;;;0.72;57.87;101974.31;5079329;28;48147;-76
2022/03/07 06:07:58;;;;;;;;;70.33;51.00;;;;;0.77;57.87;101986.00;5081348;27;45452;-75
2022/03/07 06:10:24;;;;;;;;;82.67;60.33;;;;;0.47;58.59;101939.25;5079023;27;45322;-77
2022/03/07 06:12:49;;;;;;;;;62.67;52.67;;;;;0.51;58.92;101944.84;5076283;28;45318;-76
2022/03/07 06:15:14;;;;;;;;;81.00;64.67;;;;;0.44;58.22;101934.69;5079779;28;46094;-75
2022/03/07 06:17:52;;;;;;;;;60.33;47.33;;;;;0.72;58.62;101991.63;5076287;28;45492;-78
2022/03/07 06:20:20;;;;;;;;;83.67;62.33;;;;;0.41;57.77;101943.16;5071636;28;45371;-76
2022/03/07 06:22:45;;;;;;;;;83.33;61.67;;;;;0.51;58.20;101959.53;5081218;28;45528;-75
2022/03/07 06:25:11;;;;;;;;;81.67;62.67;;;;;0.46;58.20;101963.44;5071565;27;45343;-79
2022/03/07 06:27:37;;;;;;;;;86.00;62.33;;;;;0.66;58.49;101994.63;5078022;28;45354;-76
2022/03/07 06:30:03;;;;;;;;;130.50;114.25;;;;;0.61;58.51;101994.22;5072617;28;45359;-72
2022/03/07 06:32:28;;;;;;;;;63.33;49.33;;;;;0.49;58.59;101977.59;5078299;28;46278;-77
2022/03/07 06:34:54;;;;;;;;;70.33;59.00;;;;;0.62;58.79;102002.97;5071163;27;45511;-77
2022/03/07 06:37:19;;;;;;;;;71.67;56.33;;;;;0.56;58.94;101985.16;5077232;28;45339;-76
2022/03/07 06:39:44;;;;;;;;;59.00;49.00;;;;;0.39;58.96;101957.72;5075892;27;45245;-76
2022/03/07 06:42:10;;;;;;;;;64.67;51.00;;;;;0.41;59.32;101965.66;5067705;27;45421;-76
2022/03/07 06:44:39;;;;;;;;;49.67;42.33;;;;;0.15;59.41;101911.47;5075419;28;45328;-76
2022/03/07 06:47:06;;;;;;;;;58.67;48.67;;;;;0.65;59.01;101996.31;5079492;28;45387;-77
2022/03/07 06:49:31;;;;;;;;;56.33;46.00;;;;;0.60;58.27;102004.53;5073208;28;45468;-76
2022/03/07 06:51:57;;;;;;;;;64.00;48.67;;;;;0.37;58.49;101961.00;5067676;27;45276;-76
2022/03/07 06:54:22;;;;;;;;;60.00;51.33;;;;;0.62;58.74;102005.56;5081533;27;48242;-76
2022/03/07 06:56:47;;;;;;;;;64.67;48.00;;;;;0.49;59.54;101988.00;5077688;28;45476;-74
2022/03/07 06:59:13;;;;;;;;;83.33;61.67;;;;;0.41;59.44;101969.16;5077164;27;45330;-77
2022/03/07 07:01:38;;;;;;;;;55.67;45.67;;;;;0.64;58.96;102002.31;5077646;28;45533;-76
2022/03/07 07:04:04;;;;;;;;;62.00;48.67;;;;;0.42;58.67;101963.19;5075769;28;48330;-76
2022/03/07 07:06:29;;;;;;;;;60.00;48.33;;;;;0.61;58.89;101993.31;5077123;28;45481;-76
2022/03/07 07:08:55;;;;;;;;;68.33;52.00;;;;;0.70;58.75;102004.50;5079142;27;45362;-76
2022/03/07 07:11:20;;;;;;;;;62.67;46.00;;;;;0.71;58.82;102003.72;5073030;27;45267;-75
2022/03/07 07:13:45;;;;;;;;;47.00;45.00;;;;;0.64;59.01;101994.50;5078271;28;48246;-76
2022/03/07 07:16:11;;;;;;;;;77.67;61.00;;;;;0.74;58.60;102009.19;5073568;27;45441;-75
2022/03/07 07:18:36;;;;;;;;;65.00;48.33;;;;;0.62;58.64;101974.34;5078525;28;45322;-75
2022/03/07 07:21:01;;;;;;;;;55.33;44.33;;;;;0.83;58.82;102002.13;5074468;27;45236;-75
2022/03/07 07:23:27;;;;;;;;;95.75;73.50;;;;;0.90;57.95;102000.97;5079676;28;45197;-75
2022/03/07 07:25:54;;;;;;;;;63.67;50.33;;;;;1.01;58.42;102009.63;5076495;28;45290;-74
2022/03/07 07:28:19;;;;;;;;;63.00;49.33;;;;;1.00;57.68;101981.78;5079637;27;45449;-75
2022/03/07 07:30:46;;;;;;;;;71.67;57.00;;;;;0.98;58.17;101965.13;5070907;27;45401;-76
2022/03/07 07:33:11;;;;;;;;;79.67;61.67;;;;;1.24;57.44;101998.50;5079360;28;45581;-74
2022/03/07 07:35:37;;;;;;;;;59.67;44.67;;;;;1.29;57.53;101985.06;5069948;27;45448;-75
2022/03/07 07:38:04;;;;;;;;;67.00;49.00;;;;;1.42;57.26;101992.16;5076582;28;45409;-74
2022/03/07 07:40:30;;;;;;;;;57.33;45.00;;;;;1.52;57.48;102009.44;5070088;27;45561;-74
2022/03/07 07:42:56;;;;;;;;;63.67;49.00;;;;;1.46;56.84;101977.69;5079799;28;45219;-74
2022/03/07 07:45:21;;;;;;;;;87.00;63.67;;;;;1.46;56.80;101981.19;5070452;27;45308;-78
2022/03/07 07:47:47;;;;;;;;;62.33;52.00;;;;;1.78;57.22;102012.41;5080185;27;45765;-76
2022/03/07 07:50:12;;;;;;;;;49.67;44.00;;;;;1.78;56.47;101998.47;5074692;27;45248;-75
2022/03/07 07:52:37;;;;;;;;;77.67;57.33;;;;;1.92;56.09;102002.16;5070416;28;46112;-75
2022/03/07 07:55:07;;;;;;;;;56.33;46.67;;;;;1.97;56.25;102003.44;5076863;27;45862;-75
2022/03/07 07:57:33;;;;;;;;;69.67;51.67;;;;;1.93;56.20;101962.25;5078289;27;45425;-73
2022/03/07 07:59:59;;;;;;;;;78.33;61.00;;;;;1.73;55.87;101924.22;5078855;27;45437;-75
2022/03/07 08:02:24;;;;;;;;;67.33;53.67;;;;;1.93;55.78;101942.31;5070397;27;46188;-75
2022/03/07 08:04:51;;;;;;;;;90.67;66.67;;;;;1.82;55.41;101908.38;5077591;28;45490;-74
2022/03/07 08:07:17;;;;;;;;;61.67;50.67;;;;;2.27;54.98;101981.44;5070406;27;45571;-74
2022/03/07 08:09:43;;;;;;;;;67.67;52.00;;;;;2.09;54.89;101943.50;5078117;28;45624;-74
2022/03/07 08:12:10;;;;;;;;;58.00;45.00;;;;;2.16;55.07;101944.09;5085152;27;47165;-74
2022/03/07 08:14:35;;;;;;;;;63.00;49.33;;;;;2.38;53.99;101982.22;5078737;27;45417;-75
2022/03/07 08:17:01;;;;;;;;;70.67;53.33;;;;;2.32;53.78;101987.88;5074052;27;45319;-74
2022/03/07 08:19:26;;;;;;;;;66.00;52.67;;;;;2.26;54.66;101953.50;5075061;28;47408;-74
2022/03/07 08:21:52;;;;;;;;;54.00;43.33;;;;;2.36;54.16;101965.56;5072753;28;45737;-74
2022/03/07 08:24:17;;;;;;;;;58.67;46.67;;;;;2.56;54.56;101980.13;5072429;28;45631;-75
2022/03/07 08:26:43;;;;;;;;;84.33;59.33;;;;;2.56;53.95;101977.50;5067415;28;45414;-74
2022/03/07 08:29:08;;;;;;;;;66.67;50.00;;;;;2.58;53.61;101971.59;5078142;27;45288;-74
2022/03/07 08:31:33;;;;;;;;;67.67;51.00;;;;;2.57;54.03;101961.03;5070093;27;45981;-74
2022/03/07 08:33:59;;;;;;;;;58.67;45.67;;;;;2.74;53.17;101977.97;5078354;27;45462;-74
2022/03/07 08:36:24;;;;;;;;;48.33;41.67;;;;;2.59;53.06;101969.91;5070282;27;45304;-75
2022/03/07 08:38:49;;;;;;;;;65.33;52.33;;;;;2.74;53.49;101970.13;5076884;27;45634;-74
2022/03/07 08:41:15;;;;;;;;;67.67;50.00;;;;;2.73;52.93;101956.19;5067595;28;46055;-73
2022/03/07 08:43:42;;;;;;;;;85.00;67.33;;;;;2.88;52.44;101977.28;5072679;28;45469;-73
2022/03/07 08:46:07;;;;;;;;;69.67;52.00;;;;;2.89;52.64;101958.22;5067693;28;45466;-73
2022/03/07 08:48:33;;;;;;;;;68.67;52.67;;;;;3.03;52.11;101970.59;5070730;28;46435;-74
2022/03/07 08:50:58;;;;;;;;;77.00;58.00;;;;;2.86;52.24;101924.97;5071899;28;45446;-74
2022/03/07 08:53:24;;;;;;;;;64.67;52.00;;;;;3.06;51.65;101982.97;5072728;28;45451;-74
2022/03/07 08:55:49;;;;;;;;;72.33;56.00;;;;;2.99;51.79;101946.75;5075815;28;45408;-73
2022/03/07 08:58:15;;;;;;;;;54.00;44.00;;;;;3.09;51.83;101954.47;5076729;27;45514;-74
2022/03/07 09:00:40;;;;;;;;;77.00;55.67;;;;;3.33;52.12;101971.00;5075021;27;46130;-73
2022/03/07 09:03:05;;;;;;;;;95.67;67.33;;;;;3.45;52.06;101965.75;5073486;28;45350;-74
2022/03/07 09:05:31;;;;;;;;;54.33;41.67;;;;;3.52;51.45;101968.91;5075730;28;45339;-74
2022/03/07 09:07:57;;;;;;;;;79.67;60.67;;;;;3.43;51.04;101939.50;5073336;28;45338;-74
2022/03/07 09:10:22;;;;;;;;;48.67;39.33;;;;;3.52;50.53;101936.63;5076548;28;46357;-75
2022/03/07 09:12:49;;;;;;;;;47.33;42.33;;;;;3.72;50.52;101967.69;5073128;28;45291;-75
2022/03/07 09:15:14;;;;;;;;;66.67;50.00;;;;;3.81;50.49;101967.47;5078370;28;45415;-76
2022/03/07 09:17:41;;;;;;;;;54.33;43.67;;;;;3.59;50.25;101916.28;5082125;27;45340;-75
2022/03/07 09:20:07;;;;;;;;;49.00;42.00;;;;;3.99;50.12;101968.72;5073648;27;46198;-75
2022/03/07 09:22:33;;;;;;;;;57.67;46.67;;;;;4.17;49.44;101962.94;5081488;28;45527;-75
2022/03/07 09:24:59;;;;;;;;;57.00;43.50;;;;;4.31;48.55;101958.66;5075081;27;44732;-74
2022/03/07 09:27:24;;;;;;;;;51.25;43.50;;;;;4.41;49.96;101963.72;5074139;28;45485;-75
2022/03/07 09:29:49;;;;;;;;;48.00;38.50;;;;;4.45;47.76;101968.34;5073574;28;45321;-76
2022/03/07 09:32:15;;;;;;;;;55.00;42.75;;;;;3.99;48.61;101895.47;5079827;28;45160;-75
2022/03/07 09:34:40;;;;;;;;;58.25;44.00;;;;;4.34;48.55;101946.72;5077176;27;45397;-75
2022/03/07 09:37:06;;;;;;;;;64.67;50.33;;;;;4.53;49.35;101967.16;5077219;28;45304;-75
2022/03/07 09:39:34;;;;;;;;;54.50;43.00;;;;;4.44;48.56;101943.91;5076567;27;45387;-76
2022/03/07 09:42:00;;;;;;;;;62.33;47.33;;;;;4.49;48.83;101942.50;5069004;27;45410;-76
2022/03/07 09:44:27;;;;;;;;;57.67;45.67;;;;;4.42;48.42;101908.84;5076668;28;45337;-76
2022/03/07 09:46:55;;;;;;;;;67.33;54.33;;;;;4.76;47.79;101966.09;5079018;28;46247;-76
2022/03/07 09:49:21;;;;;;;;;60.75;48.75;;;;;4.53;48.34;101890.34;5077563;28;47664;-76
2022/03/07 09:51:46;;;;;;;;;66.67;51.67;;;;;4.88;47.13;101952.91;5070448;27;45461;-75
2022/03/07 09:54:11;;;;;;;;;59.25;47.75;;;;;4.94;45.83;101969.03;5080001;28;45469;-74
2022/03/07 09:56:37;;;;;;;;;45.75;38.25;;;;;5.09;46.93;101958.63;5080206;27;45259;-76
2022/03/07 09:59:03;;;;;;;;;58.00;45.25;;;;;5.28;46.21;101945.91;5072839;27;45696;-75
2022/03/07 10:01:29;;;;;;;;;44.50;39.75;;;;;5.57;46.38;101942.53;5075819;28;45937;-74
2022/03/07 10:04:07;;;;;;;;;57.50;45.25;;;;;5.73;46.22;101939.13;5076131;27;46116;-75
2022/03/07 10:06:33;;;;;;;;;40.00;36.00;;;;;5.62;45.21;101913.94;5078854;28;47264;-74
2022/03/07 10:09:00;;;;;;;;;55.25;43.00;;;;;5.89;45.46;101940.09;5075891;28;46736;-76
2022/03/07 10:11:28;;;;;;;;;52.25;41.25;;;;;6.06;43.54;101939.41;5078168;28;45528;-76
2022/03/07 10:14:00;;;;;;;;;56.25;47.50;;;;;6.12;45.42;101894.25;5070456;28;45494;-75
2022/03/07 10:16:39;;;;;;;;;46.00;40.00;;;;;6.54;45.04;101935.28;5078764;27;45290;-76
2022/03/07 10:19:13;;;;;;;;;48.50;38.50;;;;;6.65;44.70;101920.16;5078162;28;45332;-75
2022/03/07 10:21:47;;;;;;;;;52.25;41.00;;;;;7.00;44.28;101924.81;5076778;28;45738;-75
2022/03/07 10:24:13;;;;;;;;;55.75;42.50;;;;;7.00;40.79;101894.97;5078547;28;45359;-75
2022/03/07 10:26:38;;;;;;;;;54.00;41.25;;;;;7.11;41.13;101886.91;5076921;28;45404;-76
2022/03/07 10:29:06;;;;;;;;;49.00;39.25;;;;;7.37;40.84;101921.63;5078400;28;47197;-75
2022/03/07 10:31:31;;;;;;;;;47.75;39.25;;;;;7.22;41.46;101874.31;5076181;27;45307;-75
2022/03/07 10:34:08;;;;;;;;;48.25;41.25;;;;;7.72;40.32;101918.25;5076420;28;45257;-75
2022/03/07 10:36:39;;;;;;;;;51.50;41.00;;;;;7.94;40.38;101911.53;5077138;28;45564;-75
2022/03/07 10:39:09;;;;;;;;;47.50;40.25;;;;;8.06;41.46;101886.72;5075294;27;45392;-75
2022/03/07 10:41:46;;;;;;;;;46.25;37.00;;;;;8.55;41.89;101919.09;5068807;28;45313;-75
2022/03/07 10:44:37;;;;;;;;;47.00;39.00;;;;;8.37;40.53;101877.75;5069276;28;45343;-74
2022/03/07 10:47:19;;;;;;;;;37.50;31.50;;;;;8.74;40.55;101895.47;5064971;28;45415;-74
2022/03/07 10:49:53;;;;;;;;;35.25;35.25;;;;;9.00;38.95;101898.47;5077612;28;45520;-75
2022/03/07 10:52:21;;;;;;;;;43.00;38.25;;;;;9.16;37.94;101896.63;5069702;27;45311;-75
2022/03/07 10:54:50;;;;;;;;;44.50;37.25;;;;;9.16;38.96;101875.53;5079406;28;45190;-75
2022/03/07 10:57:21;;;;;;;;;42.00;37.00;;;;;9.31;40.79;101862.13;5079346;27;45511;-76
2022/03/07 10:59:47;;;;;;;;;47.75;37.75;;;;;9.55;38.71;101862.38;5079644;27;47521;-75
2022/03/07 11:02:16;;;;;;;;;45.25;37.25;;;;;9.61;36.90;101859.13;5071707;27;45583;-75
2022/03/07 11:04:43;;;;;;;;;39.75;36.25;;;;;9.77;35.68;101877.41;5077610;28;45384;-76
2022/03/07 11:07:09;;;;;;;;;43.50;37.50;;;;;9.58;34.40;101864.25;5071933;27;45300;-76
2022/03/07 11:09:36;;;;;;;;;27.50;26.00;;;;;9.58;35.07;101878.34;5079469;27;45961;-75
2022/03/07 11:12:03;;;;;;;;;42.25;37.00;;;;;9.64;34.84;101877.72;5073836;27;45303;-76